SBOSBO HER / LGIR
Speedbird OnlineSpeedbird Online HER / LGIR

Heraklion International Nikos Kazantzakis Airport
16:36 13°C

Location Heraklion, Greece
Latitude: 35.3396987915
Longitude: 25.180299758900002
Web Wikipedia
Altitude 35 Meter / 115 Feet
Distance 2,683 KM / 1,667 Miles
from London.
Time Zone UTC +2 hours (Europe/Athens)
Codes IATA: HER
ICAO: LGIR
Currency £1 equals EUR 1.14
Runways
RunwayLength (m)Surface
092682Asphalt
121566Asphalt
18780Asphalt
272682Asphalt
301566Asphalt
36780Asphalt
Radio
TypeDescriptionFrequency
A/GKAZANTZAKIS RDO563.7
APPIRAKLION APP123.975
ATISATIS127.55
DIRIRAKLION DIRECTOR118.025
GNDKAZANTZAKIS GND121.7
TRSAIRAKLION RADAR123.975
TWRKAZANTZAKIS TWR120.85
Live ATC
METAR LGIR 311420Z 32010KT 9999 FEW018 BKN025 BKN080 13/07 Q1010 NOSIG
TAF TAF LGIR 311100Z 3112/0112 30010KT 9999 FEW018 BKN025 BKN080 PROB40 TEMPO 3112/0112 5000 RA FEW010 FEW018TCU BKN025 BKN070 PROB40 TEMPO 3115/0106 4000 TSRA SCT010 FEW016CB BKN020 OVC070 BECMG 3120/3122 35012KT TEMPO 0100/0108 34014G24KT
Weather As Of 31 Jan 2023 16:36
Description Broken clouds
Wind 19 km/h from North-West (320°)
Cloud Cover 75%
Precipitation Rain: none, Snow: none
Sunrise 07:19
Sunset 17:45
Lounges Filoxenia Lounge , Main Terminal



Support Speedbird Online

© 2017-2023 Speedbird Online